sensor_id;sensor_type;location;lat;lon;timestamp;temperature;humidity
51011;DHT22;37038;50.182;8.624;2023-05-10T00:00:39;13.30;99.90
51011;DHT22;37038;50.182;8.624;2023-05-10T00:03:27;13.20;99.90
51011;DHT22;37038;50.182;8.624;2023-05-10T00:06:15;13.30;99.90
51011;DHT22;37038;50.182;8.624;2023-05-10T00:09:03;13.30;99.90
51011;DHT22;37038;50.182;8.624;2023-05-10T00:11:51;13.30;99.90
51011;DHT22;37038;50.182;8.624;2023-05-10T00:14:39;13.30;99.90
51011;DHT22;37038;50.182;8.624;2023-05-10T00:17:26;13.30;99.90
51011;DHT22;37038;50.182;8.624;2023-05-10T00:20:14;13.30;99.90
51011;DHT22;37038;50.182;8.624;2023-05-10T00:23:03;13.20;99.90
51011;DHT22;37038;50.182;8.624;2023-05-10T00:25:51;13.20;99.90
51011;DHT22;37038;50.182;8.624;2023-05-10T00:28:39;13.20;99.90
51011;DHT22;37038;50.182;8.624;2023-05-10T00:31:26;13.20;99.90
51011;DHT22;37038;50.182;8.624;2023-05-10T00:34:14;13.20;99.90
51011;DHT22;37038;50.182;8.624;2023-05-10T00:37:02;13.20;99.90
51011;DHT22;37038;50.182;8.624;2023-05-10T00:39:50;13.20;99.90
51011;DHT22;37038;50.182;8.624;2023-05-10T00:42:40;13.20;99.90
51011;DHT22;37038;50.182;8.624;2023-05-10T00:45:30;13.10;99.90
51011;DHT22;37038;50.182;8.624;2023-05-10T00:48:18;13.20;99.90
51011;DHT22;37038;50.182;8.624;2023-05-10T00:51:06;13.20;99.90
51011;DHT22;37038;50.182;8.624;2023-05-10T00:53:54;13.10;99.90
51011;DHT22;37038;50.182;8.624;2023-05-10T00:56:44;13.10;99.90
51011;DHT22;37038;50.182;8.624;2023-05-10T00:59:36;13.10;99.90
51011;DHT22;37038;50.182;8.624;2023-05-10T01:02:24;13.00;99.90
51011;DHT22;37038;50.182;8.624;2023-05-10T01:05:12;13.00;99.90
51011;DHT22;37038;50.182;8.624;2023-05-10T01:08:00;13.00;99.90
51011;DHT22;37038;50.182;8.624;2023-05-10T01:10:48;13.00;99.90
51011;DHT22;37038;50.182;8.624;2023-05-10T01:13:42;12.90;99.90
51011;DHT22;37038;50.182;8.624;2023-05-10T01:16:37;12.90;99.90
51011;DHT22;37038;50.182;8.624;2023-05-10T01:19:27;12.90;99.90
51011;DHT22;37038;50.182;8.624;2023-05-10T01:28:29;12.90;99.90
51011;DHT22;37038;50.182;8.624;2023-05-10T01:31:55;12.80;99.90
51011;DHT22;37038;50.182;8.624;2023-05-10T01:37:50;12.80;99.90
51011;DHT22;37038;50.182;8.624;2023-05-10T01:44:04;12.70;99.90
51011;DHT22;37038;50.182;8.624;2023-05-10T01:47:01;12.70;99.90
51011;DHT22;37038;50.182;8.624;2023-05-10T01:49:53;12.70;99.90
51011;DHT22;37038;50.182;8.624;2023-05-10T01:52:44;12.70;99.90
51011;DHT22;37038;50.182;8.624;2023-05-10T01:55:35;12.60;99.90
51011;DHT22;37038;50.182;8.624;2023-05-10T01:58:32;12.70;99.90
51011;DHT22;37038;50.182;8.624;2023-05-10T02:01:21;12.60;99.90
51011;DHT22;37038;50.182;8.624;2023-05-10T02:04:10;12.70;99.90
51011;DHT22;37038;50.182;8.624;2023-05-10T02:06:58;12.60;99.90
51011;DHT22;37038;50.182;8.624;2023-05-10T02:09:46;12.60;99.90
51011;DHT22;37038;50.182;8.624;2023-05-10T02:12:40;12.60;99.90
51011;DHT22;37038;50.182;8.624;2023-05-10T02:15:29;12.60;99.90
51011;DHT22;37038;50.182;8.624;2023-05-10T02:18:18;12.60;99.90
51011;DHT22;37038;50.182;8.624;2023-05-10T02:21:08;12.60;99.90
51011;DHT22;37038;50.182;8.624;2023-05-10T02:23:58;12.60;99.90
51011;DHT22;37038;50.182;8.624;2023-05-10T02:26:47;12.60;99.90
51011;DHT22;37038;50.182;8.624;2023-05-10T02:29:37;12.60;99.90
51011;DHT22;37038;50.182;8.624;2023-05-10T02:32:26;12.60;99.90
51011;DHT22;37038;50.182;8.624;2023-05-10T02:35:14;12.50;99.90
51011;DHT22;37038;50.182;8.624;2023-05-10T02:38:04;12.50;99.90
51011;DHT22;37038;50.182;8.624;2023-05-10T02:40:52;12.50;99.90
51011;DHT22;37038;50.182;8.624;2023-05-10T02:43:42;12.40;99.90
51011;DHT22;37038;50.182;8.624;2023-05-10T02:46:30;12.40;99.90
51011;DHT22;37038;50.182;8.624;2023-05-10T02:49:18;12.40;99.90
51011;DHT22;37038;50.182;8.624;2023-05-10T02:52:07;12.40;99.90
51011;DHT22;37038;50.182;8.624;2023-05-10T02:55:00;12.40;99.90
51011;DHT22;37038;50.182;8.624;2023-05-10T02:57:52;12.40;99.90
51011;DHT22;37038;50.182;8.624;2023-05-10T03:00:41;12.40;99.90
51011;DHT22;37038;50.182;8.624;2023-05-10T03:03:29;12.40;99.90
51011;DHT22;37038;50.182;8.624;2023-05-10T03:06:17;12.40;99.90
51011;DHT22;37038;50.182;8.624;2023-05-10T03:09:05;12.40;99.90
51011;DHT22;37038;50.182;8.624;2023-05-10T03:18:48;12.40;99.90
51011;DHT22;37038;50.182;8.624;2023-05-10T03:21:41;12.40;99.90
51011;DHT22;37038;50.182;8.624;2023-05-10T03:24:32;12.40;99.90
51011;DHT22;37038;50.182;8.624;2023-05-10T03:27:23;12.30;99.90
51011;DHT22;37038;50.182;8.624;2023-05-10T03:30:12;12.30;99.90
51011;DHT22;37038;50.182;8.624;2023-05-10T03:33:06;12.30;99.90
51011;DHT22;37038;50.182;8.624;2023-05-10T03:35:54;12.30;99.90
51011;DHT22;37038;50.182;8.624;2023-05-10T03:38:42;12.30;99.90
51011;DHT22;37038;50.182;8.624;2023-05-10T03:41:29;12.30;99.90
51011;DHT22;37038;50.182;8.624;2023-05-10T03:44:17;12.30;99.90
51011;DHT22;37038;50.182;8.624;2023-05-10T03:47:05;12.20;99.90
51011;DHT22;37038;50.182;8.624;2023-05-10T03:49:52;12.30;99.90
51011;DHT22;37038;50.182;8.624;2023-05-10T03:52:40;12.30;99.90
51011;DHT22;37038;50.182;8.624;2023-05-10T03:55:28;12.30;99.90
51011;DHT22;37038;50.182;8.624;2023-05-10T03:58:16;12.30;99.90
51011;DHT22;37038;50.182;8.624;2023-05-10T04:01:04;12.30;99.90
51011;DHT22;37038;50.182;8.624;2023-05-10T04:03:52;12.40;99.90
51011;DHT22;37038;50.182;8.624;2023-05-10T04:06:40;12.30;99.90
51011;DHT22;37038;50.182;8.624;2023-05-10T04:09:27;12.30;99.90
51011;DHT22;37038;50.182;8.624;2023-05-10T04:12:15;12.40;99.90
51011;DHT22;37038;50.182;8.624;2023-05-10T04:15:02;12.40;99.90
51011;DHT22;37038;50.182;8.624;2023-05-10T04:17:52;12.50;99.90
51011;DHT22;37038;50.182;8.624;2023-05-10T04:20:41;12.50;99.90
51011;DHT22;37038;50.182;8.624;2023-05-10T04:23:28;12.50;99.90
51011;DHT22;37038;50.182;8.624;2023-05-10T04:26:16;12.60;99.90
51011;DHT22;37038;50.182;8.624;2023-05-10T04:29:03;12.60;99.90
51011;DHT22;37038;50.182;8.624;2023-05-10T04:31:54;12.50;99.90
51011;DHT22;37038;50.182;8.624;2023-05-10T04:34:44;12.50;99.90
51011;DHT22;37038;50.182;8.624;2023-05-10T04:37:32;12.70;99.90
51011;DHT22;37038;50.182;8.624;2023-05-10T04:40:19;12.70;99.90
51011;DHT22;37038;50.182;8.624;2023-05-10T04:43:08;12.70;99.90
51011;DHT22;37038;50.182;8.624;2023-05-10T04:45:56;12.70;99.90
51011;DHT22;37038;50.182;8.624;2023-05-10T04:48:44;12.80;99.90
51011;DHT22;37038;50.182;8.624;2023-05-10T04:51:31;12.90;99.90
51011;DHT22;37038;50.182;8.624;2023-05-10T04:54:19;12.90;99.90
51011;DHT22;37038;50.182;8.624;2023-05-10T04:57:07;12.90;99.90
51011;DHT22;37038;50.182;8.624;2023-05-10T04:59:55;12.90;99.90
51011;DHT22;37038;50.182;8.624;2023-05-10T05:02:44;12.90;99.90
51011;DHT22;37038;50.182;8.624;2023-05-10T05:05:39;12.90;99.90
51011;DHT22;37038;50.182;8.624;2023-05-10T05:08:39;13.10;99.90
51011;DHT22;37038;50.182;8.624;2023-05-10T05:11:26;13.10;99.90
51011;DHT22;37038;50.182;8.624;2023-05-10T05:14:16;13.10;99.90
51011;DHT22;37038;50.182;8.624;2023-05-10T05:17:04;13.10;99.90
51011;DHT22;37038;50.182;8.624;2023-05-10T05:19:52;13.00;99.90
51011;DHT22;37038;50.182;8.624;2023-05-10T05:22:40;13.10;99.90
51011;DHT22;37038;50.182;8.624;2023-05-10T05:25:28;13.10;99.90
51011;DHT22;37038;50.182;8.624;2023-05-10T05:28:16;13.20;99.90
51011;DHT22;37038;50.182;8.624;2023-05-10T05:31:05;13.10;99.90
51011;DHT22;37038;50.182;8.624;2023-05-10T05:33:53;13.10;99.90
51011;DHT22;37038;50.182;8.624;2023-05-10T05:36:40;13.10;99.90
51011;DHT22;37038;50.182;8.624;2023-05-10T05:39:28;13.10;99.90
51011;DHT22;37038;50.182;8.624;2023-05-10T05:42:15;13.10;99.90
51011;DHT22;37038;50.182;8.624;2023-05-10T05:45:05;13.10;99.90
51011;DHT22;37038;50.182;8.624;2023-05-10T05:47:53;13.10;99.90
51011;DHT22;37038;50.182;8.624;2023-05-10T05:50:43;13.10;99.90
51011;DHT22;37038;50.182;8.624;2023-05-10T05:53:31;13.20;99.90
51011;DHT22;37038;50.182;8.624;2023-05-10T05:56:18;13.20;99.90
51011;DHT22;37038;50.182;8.624;2023-05-10T05:59:14;13.20;99.90
51011;DHT22;37038;50.182;8.624;2023-05-10T06:02:02;13.20;99.90
51011;DHT22;37038;50.182;8.624;2023-05-10T06:04:50;13.10;99.90
51011;DHT22;37038;50.182;8.624;2023-05-10T06:07:38;13.10;99.90
51011;DHT22;37038;50.182;8.624;2023-05-10T06:10:25;13.10;99.90
51011;DHT22;37038;50.182;8.624;2023-05-10T06:13:13;13.30;99.90
51011;DHT22;37038;50.182;8.624;2023-05-10T06:16:02;13.50;99.90
51011;DHT22;37038;50.182;8.624;2023-05-10T06:18:49;13.40;99.90
51011;DHT22;37038;50.182;8.624;2023-05-10T06:21:37;13.40;99.90
51011;DHT22;37038;50.182;8.624;2023-05-10T06:24:25;13.40;99.90
51011;DHT22;37038;50.182;8.624;2023-05-10T06:27:14;13.50;99.90
51011;DHT22;37038;50.182;8.624;2023-05-10T06:30:02;13.60;99.90
51011;DHT22;37038;50.182;8.624;2023-05-10T06:33:01;13.70;99.90
51011;DHT22;37038;50.182;8.624;2023-05-10T06:35:49;13.90;99.90
51011;DHT22;37038;50.182;8.624;2023-05-10T06:38:36;14.00;99.90
51011;DHT22;37038;50.182;8.624;2023-05-10T06:41:24;14.10;99.90
51011;DHT22;37038;50.182;8.624;2023-05-10T06:44:12;14.00;99.90
51011;DHT22;37038;50.182;8.624;2023-05-10T06:47:03;14.00;99.90
51011;DHT22;37038;50.182;8.624;2023-05-10T06:49:51;14.20;99.90
51011;DHT22;37038;50.182;8.624;2023-05-10T06:52:39;14.50;99.90
51011;DHT22;37038;50.182;8.624;2023-05-10T06:55:27;14.70;99.90
51011;DHT22;37038;50.182;8.624;2023-05-10T06:58:14;14.90;99.90
51011;DHT22;37038;50.182;8.624;2023-05-10T07:01:08;15.00;99.90
51011;DHT22;37038;50.182;8.624;2023-05-10T07:03:56;14.60;99.90
51011;DHT22;37038;50.182;8.624;2023-05-10T07:06:44;14.60;99.90
51011;DHT22;37038;50.182;8.624;2023-05-10T07:09:36;14.60;99.90
51011;DHT22;37038;50.182;8.624;2023-05-10T07:12:25;14.50;99.90
51011;DHT22;37038;50.182;8.624;2023-05-10T07:15:13;14.30;99.90
51011;DHT22;37038;50.182;8.624;2023-05-10T07:18:01;14.20;99.90
51011;DHT22;37038;50.182;8.624;2023-05-10T07:20:54;14.20;99.90
51011;DHT22;37038;50.182;8.624;2023-05-10T07:23:48;14.30;99.90
51011;DHT22;37038;50.182;8.624;2023-05-10T07:26:50;14.40;99.90
51011;DHT22;37038;50.182;8.624;2023-05-10T07:29:38;14.60;99.90
51011;DHT22;37038;50.182;8.624;2023-05-10T07:32:27;14.50;99.90
51011;DHT22;37038;50.182;8.624;2023-05-10T07:35:25;14.40;99.90
51011;DHT22;37038;50.182;8.624;2023-05-10T07:38:13;14.30;99.90
51011;DHT22;37038;50.182;8.624;2023-05-10T07:41:02;14.30;99.90
51011;DHT22;37038;50.182;8.624;2023-05-10T07:43:50;14.20;99.90
51011;DHT22;37038;50.182;8.624;2023-05-10T07:46:38;14.00;99.90
51011;DHT22;37038;50.182;8.624;2023-05-10T07:49:26;14.00;99.90
51011;DHT22;37038;50.182;8.624;2023-05-10T07:52:13;14.20;99.90
51011;DHT22;37038;50.182;8.624;2023-05-10T07:55:09;14.40;99.90
51011;DHT22;37038;50.182;8.624;2023-05-10T07:57:57;14.50;99.90
51011;DHT22;37038;50.182;8.624;2023-05-10T08:00:45;15.00;99.90
51011;DHT22;37038;50.182;8.624;2023-05-10T08:03:33;15.00;99.90
51011;DHT22;37038;50.182;8.624;2023-05-10T08:06:21;15.10;99.90
51011;DHT22;37038;50.182;8.624;2023-05-10T08:09:09;15.00;99.90
51011;DHT22;37038;50.182;8.624;2023-05-10T08:11:58;14.80;99.90
51011;DHT22;37038;50.182;8.624;2023-05-10T08:14:49;15.00;99.90
51011;DHT22;37038;50.182;8.624;2023-05-10T08:17:37;15.10;99.90
51011;DHT22;37038;50.182;8.624;2023-05-10T08:20:47;15.40;99.90
51011;DHT22;37038;50.182;8.624;2023-05-10T08:23:35;15.60;99.90
51011;DHT22;37038;50.182;8.624;2023-05-10T08:26:23;15.60;99.90
51011;DHT22;37038;50.182;8.624;2023-05-10T08:29:17;16.00;99.90
51011;DHT22;37038;50.182;8.624;2023-05-10T08:32:05;15.80;99.90
51011;DHT22;37038;50.182;8.624;2023-05-10T08:34:56;15.80;99.90
51011;DHT22;37038;50.182;8.624;2023-05-10T08:37:46;15.80;99.90
51011;DHT22;37038;50.182;8.624;2023-05-10T08:40:37;15.30;99.90
51011;DHT22;37038;50.182;8.624;2023-05-10T08:43:29;15.80;99.90
51011;DHT22;37038;50.182;8.624;2023-05-10T08:46:22;16.00;99.90
51011;DHT22;37038;50.182;8.624;2023-05-10T08:49:13;15.80;99.90
51011;DHT22;37038;50.182;8.624;2023-05-10T08:52:05;15.70;99.90
51011;DHT22;37038;50.182;8.624;2023-05-10T08:54:58;15.40;99.90
51011;DHT22;37038;50.182;8.624;2023-05-10T08:57:46;15.30;99.90
51011;DHT22;37038;50.182;8.624;2023-05-10T09:00:35;15.40;99.90
51011;DHT22;37038;50.182;8.624;2023-05-10T09:03:25;15.50;99.90
51011;DHT22;37038;50.182;8.624;2023-05-10T09:06:15;15.10;99.90
51011;DHT22;37038;50.182;8.624;2023-05-10T09:09:03;14.90;99.90
51011;DHT22;37038;50.182;8.624;2023-05-10T09:11:51;14.40;99.90
51011;DHT22;37038;50.182;8.624;2023-05-10T09:14:43;14.10;99.90
51011;DHT22;37038;50.182;8.624;2023-05-10T09:17:35;14.20;99.90
51011;DHT22;37038;50.182;8.624;2023-05-10T09:20:24;14.40;99.90
51011;DHT22;37038;50.182;8.624;2023-05-10T09:23:11;14.60;99.90
51011;DHT22;37038;50.182;8.624;2023-05-10T09:26:04;14.70;99.90
51011;DHT22;37038;50.182;8.624;2023-05-10T09:28:57;14.90;99.90
51011;DHT22;37038;50.182;8.624;2023-05-10T09:31:46;15.50;99.90
51011;DHT22;37038;50.182;8.624;2023-05-10T09:34:37;15.60;99.90
51011;DHT22;37038;50.182;8.624;2023-05-10T09:37:32;15.60;99.90
51011;DHT22;37038;50.182;8.624;2023-05-10T09:40:24;15.40;99.90
51011;DHT22;37038;50.182;8.624;2023-05-10T09:43:17;15.50;99.90
51011;DHT22;37038;50.182;8.624;2023-05-10T09:46:08;15.80;99.90
51011;DHT22;37038;50.182;8.624;2023-05-10T09:48:56;16.30;99.90
51011;DHT22;37038;50.182;8.624;2023-05-10T09:51:43;16.70;99.90
51011;DHT22;37038;50.182;8.624;2023-05-10T09:54:32;17.30;99.90
51011;DHT22;37038;50.182;8.624;2023-05-10T09:57:21;17.70;99.90
51011;DHT22;37038;50.182;8.624;2023-05-10T10:00:19;18.20;99.90
51011;DHT22;37038;50.182;8.624;2023-05-10T10:03:14;18.80;99.90
51011;DHT22;37038;50.182;8.624;2023-05-10T10:06:07;19.80;99.90
51011;DHT22;37038;50.182;8.624;2023-05-10T10:12:48;18.90;99.90
51011;DHT22;37038;50.182;8.624;2023-05-10T10:15:38;17.90;99.90
51011;DHT22;37038;50.182;8.624;2023-05-10T10:18:26;17.20;99.90
51011;DHT22;37038;50.182;8.624;2023-05-10T10:21:15;16.40;99.90
51011;DHT22;37038;50.182;8.624;2023-05-10T10:24:04;15.90;99.90
51011;DHT22;37038;50.182;8.624;2023-05-10T10:26:59;15.80;99.90
51011;DHT22;37038;50.182;8.624;2023-05-10T10:30:25;16.30;99.90
51011;DHT22;37038;50.182;8.624;2023-05-10T10:36:20;15.80;99.90
51011;DHT22;37038;50.182;8.624;2023-05-10T10:39:11;16.10;99.90
51011;DHT22;37038;50.182;8.624;2023-05-10T10:41:59;16.00;99.90
51011;DHT22;37038;50.182;8.624;2023-05-10T10:44:47;15.50;99.90
51011;DHT22;37038;50.182;8.624;2023-05-10T10:47:35;15.70;99.90
51011;DHT22;37038;50.182;8.624;2023-05-10T10:50:24;15.20;99.90
51011;DHT22;37038;50.182;8.624;2023-05-10T10:53:12;14.60;99.90
51011;DHT22;37038;50.182;8.624;2023-05-10T10:56:08;14.20;99.90
51011;DHT22;37038;50.182;8.624;2023-05-10T10:58:59;14.00;99.90
51011;DHT22;37038;50.182;8.624;2023-05-10T11:01:51;13.80;99.90
51011;DHT22;37038;50.182;8.624;2023-05-10T11:04:42;13.80;99.90
51011;DHT22;37038;50.182;8.624;2023-05-10T11:07:33;13.90;99.90
51011;DHT22;37038;50.182;8.624;2023-05-10T11:10:23;14.10;99.90
51011;DHT22;37038;50.182;8.624;2023-05-10T11:13:11;14.30;99.90
51011;DHT22;37038;50.182;8.624;2023-05-10T11:16:10;14.50;99.90
51011;DHT22;37038;50.182;8.624;2023-05-10T11:19:07;14.80;99.90
51011;DHT22;37038;50.182;8.624;2023-05-10T11:24:58;15.30;99.90
51011;DHT22;37038;50.182;8.624;2023-05-10T11:27:50;15.80;99.90
51011;DHT22;37038;50.182;8.624;2023-05-10T11:30:42;16.00;99.90
51011;DHT22;37038;50.182;8.624;2023-05-10T11:33:45;16.30;99.90
51011;DHT22;37038;50.182;8.624;2023-05-10T11:36:40;16.40;99.90
51011;DHT22;37038;50.182;8.624;2023-05-10T11:39:35;16.60;99.90
51011;DHT22;37038;50.182;8.624;2023-05-10T11:42:23;16.40;99.90
51011;DHT22;37038;50.182;8.624;2023-05-10T11:45:10;15.80;99.90
51011;DHT22;37038;50.182;8.624;2023-05-10T11:47:59;16.00;99.90
51011;DHT22;37038;50.182;8.624;2023-05-10T11:50:47;16.20;99.90
51011;DHT22;37038;50.182;8.624;2023-05-10T11:53:35;16.30;99.90
51011;DHT22;37038;50.182;8.624;2023-05-10T11:56:23;16.40;99.90
51011;DHT22;37038;50.182;8.624;2023-05-10T11:59:14;16.80;99.90
51011;DHT22;37038;50.182;8.624;2023-05-10T12:02:02;17.10;99.90
51011;DHT22;37038;50.182;8.624;2023-05-10T12:04:51;17.30;99.90
51011;DHT22;37038;50.182;8.624;2023-05-10T12:07:42;17.80;99.90
51011;DHT22;37038;50.182;8.624;2023-05-10T12:10:34;17.70;99.90
51011;DHT22;37038;50.182;8.624;2023-05-10T12:13:22;18.10;99.90
51011;DHT22;37038;50.182;8.624;2023-05-10T12:16:36;18.10;99.90
51011;DHT22;37038;50.182;8.624;2023-05-10T12:19:24;18.50;99.90
51011;DHT22;37038;50.182;8.624;2023-05-10T12:22:20;18.90;99.90
51011;DHT22;37038;50.182;8.624;2023-05-10T12:25:11;18.90;99.90
51011;DHT22;37038;50.182;8.624;2023-05-10T12:28:02;18.10;99.90
51011;DHT22;37038;50.182;8.624;2023-05-10T12:30:53;18.50;99.90
51011;DHT22;37038;50.182;8.624;2023-05-10T12:33:43;18.60;99.90
51011;DHT22;37038;50.182;8.624;2023-05-10T12:36:31;19.50;99.90
51011;DHT22;37038;50.182;8.624;2023-05-10T12:39:19;18.80;99.90
51011;DHT22;37038;50.182;8.624;2023-05-10T12:42:24;18.50;99.90
51011;DHT22;37038;50.182;8.624;2023-05-10T12:45:19;19.00;99.90
51011;DHT22;37038;50.182;8.624;2023-05-10T12:48:07;20.30;99.90
51011;DHT22;37038;50.182;8.624;2023-05-10T12:50:55;20.90;99.90
51011;DHT22;37038;50.182;8.624;2023-05-10T12:53:43;21.30;99.90
51011;DHT22;37038;50.182;8.624;2023-05-10T12:56:36;19.70;99.90
51011;DHT22;37038;50.182;8.624;2023-05-10T12:59:33;19.60;99.90
51011;DHT22;37038;50.182;8.624;2023-05-10T13:02:29;19.70;99.90
51011;DHT22;37038;50.182;8.624;2023-05-10T13:05:20;20.30;99.90
51011;DHT22;37038;50.182;8.624;2023-05-10T13:08:11;20.60;99.90
51011;DHT22;37038;50.182;8.624;2023-05-10T13:11:06;19.90;99.90
51011;DHT22;37038;50.182;8.624;2023-05-10T13:13:57;20.90;99.90
51011;DHT22;37038;50.182;8.624;2023-05-10T13:16:45;20.10;99.90
51011;DHT22;37038;50.182;8.624;2023-05-10T13:19:33;19.30;99.90
51011;DHT22;37038;50.182;8.624;2023-05-10T13:22:28;18.80;99.90
51011;DHT22;37038;50.182;8.624;2023-05-10T13:25:26;18.60;99.90
51011;DHT22;37038;50.182;8.624;2023-05-10T13:28:15;17.80;99.90
51011;DHT22;37038;50.182;8.624;2023-05-10T13:31:04;17.50;99.90
51011;DHT22;37038;50.182;8.624;2023-05-10T13:34:05;17.40;99.90
51011;DHT22;37038;50.182;8.624;2023-05-10T13:36:56;17.40;99.90
51011;DHT22;37038;50.182;8.624;2023-05-10T13:39:47;17.40;99.90
51011;DHT22;37038;50.182;8.624;2023-05-10T13:42:35;17.70;99.90
51011;DHT22;37038;50.182;8.624;2023-05-10T13:45:23;18.10;99.90
51011;DHT22;37038;50.182;8.624;2023-05-10T13:48:11;18.10;99.90
51011;DHT22;37038;50.182;8.624;2023-05-10T13:50:58;18.70;99.90
51011;DHT22;37038;50.182;8.624;2023-05-10T13:53:46;18.50;99.90
51011;DHT22;37038;50.182;8.624;2023-05-10T13:56:34;19.00;99.90
51011;DHT22;37038;50.182;8.624;2023-05-10T13:59:22;18.90;99.90
51011;DHT22;37038;50.182;8.624;2023-05-10T14:02:10;18.00;99.90
51011;DHT22;37038;50.182;8.624;2023-05-10T14:05:00;18.30;99.90
51011;DHT22;37038;50.182;8.624;2023-05-10T14:07:47;18.20;99.90
51011;DHT22;37038;50.182;8.624;2023-05-10T14:10:35;18.50;99.90
51011;DHT22;37038;50.182;8.624;2023-05-10T14:13:24;18.50;99.90
51011;DHT22;37038;50.182;8.624;2023-05-10T14:16:12;18.60;99.90
51011;DHT22;37038;50.182;8.624;2023-05-10T14:19:02;18.50;99.90
51011;DHT22;37038;50.182;8.624;2023-05-10T14:21:51;18.80;99.90
51011;DHT22;37038;50.182;8.624;2023-05-10T14:24:39;18.50;99.90
51011;DHT22;37038;50.182;8.624;2023-05-10T14:27:31;18.40;99.90
51011;DHT22;37038;50.182;8.624;2023-05-10T14:30:22;18.30;99.90
51011;DHT22;37038;50.182;8.624;2023-05-10T14:33:10;19.40;99.90
51011;DHT22;37038;50.182;8.624;2023-05-10T14:35:59;20.00;99.90
51011;DHT22;37038;50.182;8.624;2023-05-10T14:38:47;20.80;99.90
51011;DHT22;37038;50.182;8.624;2023-05-10T14:41:37;21.60;99.90
51011;DHT22;37038;50.182;8.624;2023-05-10T14:44:26;21.20;99.90
51011;DHT22;37038;50.182;8.624;2023-05-10T14:47:14;21.30;99.90
51011;DHT22;37038;50.182;8.624;2023-05-10T14:50:05;20.00;99.90
51011;DHT22;37038;50.182;8.624;2023-05-10T14:52:55;21.00;99.90
51011;DHT22;37038;50.182;8.624;2023-05-10T14:55:43;21.90;99.90
51011;DHT22;37038;50.182;8.624;2023-05-10T14:58:31;21.90;99.90
51011;DHT22;37038;50.182;8.624;2023-05-10T15:01:23;21.50;99.90
51011;DHT22;37038;50.182;8.624;2023-05-10T15:04:18;20.20;99.90
51011;DHT22;37038;50.182;8.624;2023-05-10T15:07:14;19.80;99.90
51011;DHT22;37038;50.182;8.624;2023-05-10T15:10:07;20.10;99.90
51011;DHT22;37038;50.182;8.624;2023-05-10T15:12:55;20.70;99.90
51011;DHT22;37038;50.182;8.624;2023-05-10T15:15:43;19.50;99.90
51011;DHT22;37038;50.182;8.624;2023-05-10T15:18:34;19.00;99.90
51011;DHT22;37038;50.182;8.624;2023-05-10T15:21:22;19.10;99.90
51011;DHT22;37038;50.182;8.624;2023-05-10T15:24:10;19.30;99.90
51011;DHT22;37038;50.182;8.624;2023-05-10T15:26:58;19.60;99.90
51011;DHT22;37038;50.182;8.624;2023-05-10T15:29:45;19.60;99.90
51011;DHT22;37038;50.182;8.624;2023-05-10T15:32:37;19.70;99.90
51011;DHT22;37038;50.182;8.624;2023-05-10T15:35:26;19.50;99.90
51011;DHT22;37038;50.182;8.624;2023-05-10T15:38:14;19.60;99.90
51011;DHT22;37038;50.182;8.624;2023-05-10T15:41:03;19.80;99.90
51011;DHT22;37038;50.182;8.624;2023-05-10T15:43:53;20.20;99.90
51011;DHT22;37038;50.182;8.624;2023-05-10T15:46:49;20.80;99.90
51011;DHT22;37038;50.182;8.624;2023-05-10T15:49:45;20.80;99.90
51011;DHT22;37038;50.182;8.624;2023-05-10T15:52:43;20.50;99.50
51011;DHT22;37038;50.182;8.624;2023-05-10T15:55:37;19.90;99.90
51011;DHT22;37038;50.182;8.624;2023-05-10T15:58:25;19.90;99.90
51011;DHT22;37038;50.182;8.624;2023-05-10T16:01:15;20.30;99.90
51011;DHT22;37038;50.182;8.624;2023-05-10T16:04:06;19.30;99.90
51011;DHT22;37038;50.182;8.624;2023-05-10T16:06:57;19.00;99.90
51011;DHT22;37038;50.182;8.624;2023-05-10T16:09:46;19.30;99.90
51011;DHT22;37038;50.182;8.624;2023-05-10T16:12:36;19.40;99.90
51011;DHT22;37038;50.182;8.624;2023-05-10T16:15:27;18.60;99.90
51011;DHT22;37038;50.182;8.624;2023-05-10T16:18:17;18.40;99.90
51011;DHT22;37038;50.182;8.624;2023-05-10T16:21:05;18.20;99.90
51011;DHT22;37038;50.182;8.624;2023-05-10T16:23:55;18.30;99.90
51011;DHT22;37038;50.182;8.624;2023-05-10T16:26:44;18.20;99.90
51011;DHT22;37038;50.182;8.624;2023-05-10T16:29:32;18.40;99.90
51011;DHT22;37038;50.182;8.624;2023-05-10T16:32:23;18.40;99.90
51011;DHT22;37038;50.182;8.624;2023-05-10T16:35:11;18.40;99.90
51011;DHT22;37038;50.182;8.624;2023-05-10T16:37:59;18.80;99.90
51011;DHT22;37038;50.182;8.624;2023-05-10T16:40:50;18.80;99.90
51011;DHT22;37038;50.182;8.624;2023-05-10T16:43:37;18.50;99.90
51011;DHT22;37038;50.182;8.624;2023-05-10T16:46:39;18.60;99.90
51011;DHT22;37038;50.182;8.624;2023-05-10T16:49:27;18.60;99.90
51011;DHT22;37038;50.182;8.624;2023-05-10T16:52:17;18.20;99.90
51011;DHT22;37038;50.182;8.624;2023-05-10T16:55:05;18.10;99.90
51011;DHT22;37038;50.182;8.624;2023-05-10T16:57:53;18.00;99.90
51011;DHT22;37038;50.182;8.624;2023-05-10T17:00:46;18.00;99.90
51011;DHT22;37038;50.182;8.624;2023-05-10T17:03:34;18.10;99.90
51011;DHT22;37038;50.182;8.624;2023-05-10T17:06:25;18.00;99.90
51011;DHT22;37038;50.182;8.624;2023-05-10T17:09:17;17.90;99.90
51011;DHT22;37038;50.182;8.624;2023-05-10T17:12:07;17.70;99.90
51011;DHT22;37038;50.182;8.624;2023-05-10T17:14:55;17.60;99.90
51011;DHT22;37038;50.182;8.624;2023-05-10T17:17:43;17.60;99.90
51011;DHT22;37038;50.182;8.624;2023-05-10T17:20:31;17.50;99.90
51011;DHT22;37038;50.182;8.624;2023-05-10T17:23:19;17.50;99.90
51011;DHT22;37038;50.182;8.624;2023-05-10T17:26:07;17.10;99.90
51011;DHT22;37038;50.182;8.624;2023-05-10T17:28:55;17.10;99.90
51011;DHT22;37038;50.182;8.624;2023-05-10T17:31:57;17.10;99.90
51011;DHT22;37038;50.182;8.624;2023-05-10T17:34:45;17.50;99.90
51011;DHT22;37038;50.182;8.624;2023-05-10T17:37:34;17.60;99.90
51011;DHT22;37038;50.182;8.624;2023-05-10T17:40:30;17.50;99.90
51011;DHT22;37038;50.182;8.624;2023-05-10T17:43:23;17.30;99.90
51011;DHT22;37038;50.182;8.624;2023-05-10T17:46:12;17.50;99.90
51011;DHT22;37038;50.182;8.624;2023-05-10T17:49:00;17.40;99.90
51011;DHT22;37038;50.182;8.624;2023-05-10T17:51:54;17.30;99.90
51011;DHT22;37038;50.182;8.624;2023-05-10T17:54:47;17.50;99.90
51011;DHT22;37038;50.182;8.624;2023-05-10T17:57:51;17.50;99.90
51011;DHT22;37038;50.182;8.624;2023-05-10T18:00:54;17.50;99.90
51011;DHT22;37038;50.182;8.624;2023-05-10T18:04:00;17.70;99.90
51011;DHT22;37038;50.182;8.624;2023-05-10T18:07:22;17.80;99.90
51011;DHT22;37038;50.182;8.624;2023-05-10T18:10:21;18.30;99.90
51011;DHT22;37038;50.182;8.624;2023-05-10T18:13:21;18.20;99.90
51011;DHT22;37038;50.182;8.624;2023-05-10T18:16:12;18.00;99.90
51011;DHT22;37038;50.182;8.624;2023-05-10T18:19:01;18.10;99.90
51011;DHT22;37038;50.182;8.624;2023-05-10T18:21:49;17.80;99.90
51011;DHT22;37038;50.182;8.624;2023-05-10T18:24:40;17.60;99.90